sensor_id;sensor_type;location;lat;lon;timestamp;pressure;altitude;pressure_sealevel;temperature;humidity
53932;BME280;39844;52.496;13.482;2023-06-10T00:01:12;101358.28;;;17.21;74.16
53932;BME280;39844;52.496;13.482;2023-06-10T00:03:37;101353.81;;;17.22;74.32
53932;BME280;39844;52.496;13.482;2023-06-10T00:06:02;101358.28;;;17.21;73.87
53932;BME280;39844;52.496;13.482;2023-06-10T00:08:28;101355.63;;;17.20;74.29
53932;BME280;39844;52.496;13.482;2023-06-10T00:10:53;101361.88;;;17.17;74.17
53932;BME280;39844;52.496;13.482;2023-06-10T00:13:18;101348.66;;;17.16;74.26
53932;BME280;39844;52.496;13.482;2023-06-10T00:15:43;101347.84;;;17.12;74.43
53932;BME280;39844;52.496;13.482;2023-06-10T00:18:09;101348.72;;;17.13;74.83
53932;BME280;39844;52.496;13.482;2023-06-10T00:20:34;101350.53;;;17.11;74.79
53932;BME280;39844;52.496;13.482;2023-06-10T00:23:00;101336.41;;;17.08;74.52
53932;BME280;39844;52.496;13.482;2023-06-10T00:25:25;101333.78;;;17.07;75.20
53932;BME280;39844;52.496;13.482;2023-06-10T00:27:53;101337.34;;;17.06;74.80
53932;BME280;39844;52.496;13.482;2023-06-10T00:30:18;101337.44;;;17.03;75.31
53932;BME280;39844;52.496;13.482;2023-06-10T00:32:43;101347.16;;;17.02;75.54
53932;BME280;39844;52.496;13.482;2023-06-10T00:35:09;101342.78;;;17.00;75.34
53932;BME280;39844;52.496;13.482;2023-06-10T00:37:34;101340.16;;;16.98;75.48
53932;BME280;39844;52.496;13.482;2023-06-10T00:39:59;101347.31;;;16.95;75.76
53932;BME280;39844;52.496;13.482;2023-06-10T00:42:25;101350.91;;;16.92;75.96
53932;BME280;39844;52.496;13.482;2023-06-10T00:44:51;101343.84;;;16.91;75.93
53932;BME280;39844;52.496;13.482;2023-06-10T00:47:16;101350.06;;;16.89;75.80
53932;BME280;39844;52.496;13.482;2023-06-10T00:49:42;101351.00;;;16.86;76.11
53932;BME280;39844;52.496;13.482;2023-06-10T00:52:08;101347.47;;;16.86;76.40
53932;BME280;39844;52.496;13.482;2023-06-10T00:54:33;101348.41;;;16.85;76.54
53932;BME280;39844;52.496;13.482;2023-06-10T00:57:01;101346.63;;;16.84;76.38
53932;BME280;39844;52.496;13.482;2023-06-10T00:59:28;101343.09;;;16.83;76.75
53932;BME280;39844;52.496;13.482;2023-06-10T01:01:54;101353.72;;;16.83;76.86
53932;BME280;39844;52.496;13.482;2023-06-10T01:04:19;101352.88;;;16.83;76.89
53932;BME280;39844;52.496;13.482;2023-06-10T01:12:45;101357.38;;;16.78;76.86
53932;BME280;39844;52.496;13.482;2023-06-10T01:15:15;101365.41;;;16.75;77.26
53932;BME280;39844;52.496;13.482;2023-06-10T01:20:19;101354.00;;;16.70;77.17
53932;BME280;39844;52.496;13.482;2023-06-10T01:22:45;101365.53;;;16.67;77.63
53932;BME280;39844;52.496;13.482;2023-06-10T01:25:10;101362.91;;;16.66;78.04
53932;BME280;39844;52.496;13.482;2023-06-10T01:27:37;101355.00;;;16.63;77.67
53932;BME280;39844;52.496;13.482;2023-06-10T01:30:09;101361.22;;;16.60;78.03
53932;BME280;39844;52.496;13.482;2023-06-10T01:32:48;101360.44;;;16.57;77.97
53932;BME280;39844;52.496;13.482;2023-06-10T01:35:15;101361.31;;;16.56;78.08
53932;BME280;39844;52.496;13.482;2023-06-10T01:37:45;101364.91;;;16.53;77.94
53932;BME280;39844;52.496;13.482;2023-06-10T01:40:11;101376.41;;;16.51;78.78
53932;BME280;39844;52.496;13.482;2023-06-10T01:42:37;101370.25;;;16.49;78.54
53932;BME280;39844;52.496;13.482;2023-06-10T01:45:03;101370.31;;;16.45;78.65
53932;BME280;39844;52.496;13.482;2023-06-10T01:47:28;101373.88;;;16.43;78.85
53932;BME280;39844;52.496;13.482;2023-06-10T01:49:54;101368.63;;;16.41;79.07
53932;BME280;39844;52.496;13.482;2023-06-10T01:52:19;101371.28;;;16.41;79.19
53932;BME280;39844;52.496;13.482;2023-06-10T01:54:44;101372.16;;;16.40;79.15
53932;BME280;39844;52.496;13.482;2023-06-10T01:57:10;101380.16;;;16.37;79.17
53932;BME280;39844;52.496;13.482;2023-06-10T01:59:35;101381.97;;;16.37;79.63
53932;BME280;39844;52.496;13.482;2023-06-10T02:02:00;101378.44;;;16.35;79.50
53932;BME280;39844;52.496;13.482;2023-06-10T02:04:26;101373.19;;;16.33;79.34
53932;BME280;39844;52.496;13.482;2023-06-10T02:06:51;101368.75;;;16.32;79.72
53932;BME280;39844;52.496;13.482;2023-06-10T02:09:16;101363.50;;;16.31;79.78
53932;BME280;39844;52.496;13.482;2023-06-10T02:11:41;101374.13;;;16.29;79.49
53932;BME280;39844;52.496;13.482;2023-06-10T02:14:07;101367.97;;;16.27;79.64
53932;BME280;39844;52.496;13.482;2023-06-10T02:16:32;101378.59;;;16.26;79.87
53932;BME280;39844;52.496;13.482;2023-06-10T02:18:57;101374.22;;;16.23;80.12
53932;BME280;39844;52.496;13.482;2023-06-10T02:21:23;101377.75;;;16.22;80.32
53932;BME280;39844;52.496;13.482;2023-06-10T02:23:48;101389.28;;;16.21;80.49
53932;BME280;39844;52.496;13.482;2023-06-10T02:26:13;101380.50;;;16.19;80.62
53932;BME280;39844;52.496;13.482;2023-06-10T02:28:42;101386.69;;;16.18;80.57
53932;BME280;39844;52.496;13.482;2023-06-10T02:31:07;101384.06;;;16.17;80.63
53932;BME280;39844;52.496;13.482;2023-06-10T02:33:33;101385.00;;;16.14;80.59
53932;BME280;39844;52.496;13.482;2023-06-10T02:35:58;101382.34;;;16.14;80.66
53932;BME280;39844;52.496;13.482;2023-06-10T02:38:23;101379.75;;;16.11;80.62
53932;BME280;39844;52.496;13.482;2023-06-10T02:40:49;101385.06;;;16.08;80.81
53932;BME280;39844;52.496;13.482;2023-06-10T02:43:14;101382.47;;;16.07;81.25
53932;BME280;39844;52.496;13.482;2023-06-10T02:45:39;101385.13;;;16.05;81.53
53932;BME280;39844;52.496;13.482;2023-06-10T02:48:05;101383.34;;;16.04;81.00
53932;BME280;39844;52.496;13.482;2023-06-10T02:50:30;101376.34;;;16.03;81.12
53932;BME280;39844;52.496;13.482;2023-06-10T02:52:55;101382.50;;;16.02;81.43
53932;BME280;39844;52.496;13.482;2023-06-10T02:55:21;101388.72;;;16.01;81.30
53932;BME280;39844;52.496;13.482;2023-06-10T02:57:46;101388.72;;;16.00;81.50
53932;BME280;39844;52.496;13.482;2023-06-10T03:00:11;101394.03;;;16.00;81.77
53932;BME280;39844;52.496;13.482;2023-06-10T03:02:37;101388.78;;;15.98;81.94
53932;BME280;39844;52.496;13.482;2023-06-10T03:05:03;101386.13;;;15.97;81.55
53932;BME280;39844;52.496;13.482;2023-06-10T03:07:28;101388.81;;;15.95;81.68
53932;BME280;39844;52.496;13.482;2023-06-10T03:09:53;101384.44;;;15.93;81.79
53932;BME280;39844;52.496;13.482;2023-06-10T03:12:19;101386.19;;;15.92;81.88
53932;BME280;39844;52.496;13.482;2023-06-10T03:14:44;101388.84;;;15.92;82.10
53932;BME280;39844;52.496;13.482;2023-06-10T03:17:09;101390.66;;;15.90;82.63
53932;BME280;39844;52.496;13.482;2023-06-10T03:19:35;101388.00;;;15.90;82.47
53932;BME280;39844;52.496;13.482;2023-06-10T03:22:08;101388.03;;;15.89;82.24
53932;BME280;39844;52.496;13.482;2023-06-10T03:24:34;101390.69;;;15.87;82.54
53932;BME280;39844;52.496;13.482;2023-06-10T03:26:59;101393.34;;;15.87;82.40
53932;BME280;39844;52.496;13.482;2023-06-10T03:29:25;101391.63;;;15.85;82.57
53932;BME280;39844;52.496;13.482;2023-06-10T03:31:50;101390.72;;;15.84;82.58
53932;BME280;39844;52.496;13.482;2023-06-10T03:34:15;101395.19;;;15.84;82.94
53932;BME280;39844;52.496;13.482;2023-06-10T03:36:41;101396.03;;;15.84;83.07
53932;BME280;39844;52.496;13.482;2023-06-10T03:39:06;101396.03;;;15.84;82.59
53932;BME280;39844;52.496;13.482;2023-06-10T03:41:31;101401.31;;;15.86;82.95
53932;BME280;39844;52.496;13.482;2023-06-10T03:43:56;101395.16;;;15.85;82.64
53932;BME280;39844;52.496;13.482;2023-06-10T03:46:22;101406.63;;;15.84;82.89
53932;BME280;39844;52.496;13.482;2023-06-10T03:48:47;101399.56;;;15.85;83.04
53932;BME280;39844;52.496;13.482;2023-06-10T03:51:12;101400.44;;;15.85;82.53
53932;BME280;39844;52.496;13.482;2023-06-10T03:53:38;101410.16;;;15.86;82.90
53932;BME280;39844;52.496;13.482;2023-06-10T03:56:03;101411.88;;;15.87;82.67
53932;BME280;39844;52.496;13.482;2023-06-10T03:58:28;101408.34;;;15.87;82.17
53932;BME280;39844;52.496;13.482;2023-06-10T04:00:54;101402.16;;;15.88;82.90
53932;BME280;39844;52.496;13.482;2023-06-10T04:03:19;101406.53;;;15.90;82.69
53932;BME280;39844;52.496;13.482;2023-06-10T04:05:44;101416.22;;;15.93;82.89
53932;BME280;39844;52.496;13.482;2023-06-10T04:08:10;101417.06;;;15.96;82.86
53932;BME280;39844;52.496;13.482;2023-06-10T04:10:35;101417.03;;;15.98;82.30
53932;BME280;39844;52.496;13.482;2023-06-10T04:13:00;101410.81;;;16.00;82.37
53932;BME280;39844;52.496;13.482;2023-06-10T04:15:26;101424.00;;;16.03;82.29
53932;BME280;39844;52.496;13.482;2023-06-10T04:17:51;101420.41;;;16.07;82.36
53932;BME280;39844;52.496;13.482;2023-06-10T04:20:16;101410.59;;;16.14;82.11
53932;BME280;39844;52.496;13.482;2023-06-10T04:22:42;101413.22;;;16.17;80.53
53932;BME280;39844;52.496;13.482;2023-06-10T04:25:09;101415.84;;;16.17;81.03
53932;BME280;39844;52.496;13.482;2023-06-10T04:27:34;101417.63;;;16.15;80.49
53932;BME280;39844;52.496;13.482;2023-06-10T04:29:59;101415.00;;;16.13;80.70
53932;BME280;39844;52.496;13.482;2023-06-10T04:32:25;101414.13;;;16.14;81.09
53932;BME280;39844;52.496;13.482;2023-06-10T04:34:50;101422.06;;;16.14;80.88
53932;BME280;39844;52.496;13.482;2023-06-10T04:37:15;101425.59;;;16.13;80.94
53932;BME280;39844;52.496;13.482;2023-06-10T04:39:41;101431.78;;;16.12;80.70
53932;BME280;39844;52.496;13.482;2023-06-10T04:42:06;101430.91;;;16.13;80.96
53932;BME280;39844;52.496;13.482;2023-06-10T04:44:31;101440.53;;;16.19;81.22
53932;BME280;39844;52.496;13.482;2023-06-10T04:46:56;101436.94;;;16.24;80.60
53932;BME280;39844;52.496;13.482;2023-06-10T04:49:22;101442.09;;;16.30;80.09
53932;BME280;39844;52.496;13.482;2023-06-10T04:51:47;101428.78;;;16.36;80.10
53932;BME280;39844;52.496;13.482;2023-06-10T04:54:12;101440.09;;;16.46;80.30
53932;BME280;39844;52.496;13.482;2023-06-10T04:56:38;101436.41;;;16.56;79.40
53932;BME280;39844;52.496;13.482;2023-06-10T04:59:03;101436.28;;;16.64;79.39
53932;BME280;39844;52.496;13.482;2023-06-10T05:01:28;101442.28;;;16.75;78.75
53932;BME280;39844;52.496;13.482;2023-06-10T05:03:53;101443.88;;;16.85;78.64
53932;BME280;39844;52.496;13.482;2023-06-10T05:06:19;101441.81;;;16.99;78.50
53932;BME280;39844;52.496;13.482;2023-06-10T05:08:44;101438.13;;;17.08;77.41
53932;BME280;39844;52.496;13.482;2023-06-10T05:11:09;101441.47;;;17.17;76.67
53932;BME280;39844;52.496;13.482;2023-06-10T05:13:35;101441.31;;;17.26;76.00
53932;BME280;39844;52.496;13.482;2023-06-10T05:16:01;101442.94;;;17.33;75.79
53932;BME280;39844;52.496;13.482;2023-06-10T05:18:26;101453.25;;;17.48;75.56
53932;BME280;39844;52.496;13.482;2023-06-10T05:20:52;101447.59;;;17.66;75.65
53932;BME280;39844;52.496;13.482;2023-06-10T05:23:17;101447.19;;;17.85;74.57
53932;BME280;39844;52.496;13.482;2023-06-10T05:25:42;101446.75;;;18.03;73.79
53932;BME280;39844;52.496;13.482;2023-06-10T05:28:08;101451.69;;;18.18;73.03
53932;BME280;39844;52.496;13.482;2023-06-10T05:30:33;101445.06;;;18.37;72.64
53932;BME280;39844;52.496;13.482;2023-06-10T05:32:58;101449.00;;;18.56;72.33
53932;BME280;39844;52.496;13.482;2023-06-10T05:35:24;101452.38;;;18.64;71.27
53932;BME280;39844;52.496;13.482;2023-06-10T05:37:49;101445.97;;;18.71;71.41
53932;BME280;39844;52.496;13.482;2023-06-10T05:40:14;101453.03;;;18.72;70.99
53932;BME280;39844;52.496;13.482;2023-06-10T05:42:40;101447.59;;;18.78;72.10
53932;BME280;39844;52.496;13.482;2023-06-10T05:45:05;101444.66;;;18.87;72.78
53932;BME280;39844;52.496;13.482;2023-06-10T05:47:31;101441.84;;;18.93;71.17
53932;BME280;39844;52.496;13.482;2023-06-10T05:49:56;101433.69;;;19.00;71.06
53932;BME280;39844;52.496;13.482;2023-06-10T05:52:21;101437.84;;;19.10;70.58
53932;BME280;39844;52.496;13.482;2023-06-10T05:54:46;101438.47;;;19.19;70.84
53932;BME280;39844;52.496;13.482;2023-06-10T05:57:12;101438.94;;;19.33;68.85
53932;BME280;39844;52.496;13.482;2023-06-10T05:59:37;101446.75;;;19.41;68.42
53932;BME280;39844;52.496;13.482;2023-06-10T06:02:02;101446.50;;;19.50;67.98
53932;BME280;39844;52.496;13.482;2023-06-10T06:04:28;101446.31;;;19.56;67.09
53932;BME280;39844;52.496;13.482;2023-06-10T06:06:53;101450.66;;;19.60;66.01
53932;BME280;39844;52.496;13.482;2023-06-10T06:09:18;101460.34;;;19.63;65.81
53932;BME280;39844;52.496;13.482;2023-06-10T06:11:44;101453.09;;;19.66;65.28
53932;BME280;39844;52.496;13.482;2023-06-10T06:14:09;101458.22;;;19.74;65.28
53932;BME280;39844;52.496;13.482;2023-06-10T06:16:34;101450.06;;;19.78;65.10
53932;BME280;39844;52.496;13.482;2023-06-10T06:19:00;101458.84;;;19.82;64.63
53932;BME280;39844;52.496;13.482;2023-06-10T06:21:25;101458.72;;;19.86;64.00
53932;BME280;39844;52.496;13.482;2023-06-10T06:23:50;101455.91;;;19.91;64.06
53932;BME280;39844;52.496;13.482;2023-06-10T06:26:15;101470.75;;;19.99;64.15
53932;BME280;39844;52.496;13.482;2023-06-10T06:28:41;101471.38;;;20.07;64.00
53932;BME280;39844;52.496;13.482;2023-06-10T06:31:07;101469.31;;;20.17;63.91
53932;BME280;39844;52.496;13.482;2023-06-10T06:33:32;101474.44;;;20.25;63.91
53932;BME280;39844;52.496;13.482;2023-06-10T06:35:57;101476.91;;;20.31;64.05
53932;BME280;39844;52.496;13.482;2023-06-10T06:38:23;101476.75;;;20.35;63.24
53932;BME280;39844;52.496;13.482;2023-06-10T06:40:48;101478.44;;;20.38;63.04
53932;BME280;39844;52.496;13.482;2023-06-10T06:43:13;101482.88;;;20.39;63.36
53932;BME280;39844;52.496;13.482;2023-06-10T06:45:39;101485.56;;;20.37;64.12
53932;BME280;39844;52.496;13.482;2023-06-10T06:48:05;101482.75;;;20.42;63.30
53932;BME280;39844;52.496;13.482;2023-06-10T06:50:30;101487.84;;;20.49;64.21
53932;BME280;39844;52.496;13.482;2023-06-10T06:52:55;101486.41;;;20.65;64.18
53932;BME280;39844;52.496;13.482;2023-06-10T06:55:21;101485.16;;;20.77;62.92
53932;BME280;39844;52.496;13.482;2023-06-10T06:57:46;101484.66;;;20.91;62.87
53932;BME280;39844;52.496;13.482;2023-06-10T07:00:12;101490.44;;;21.03;61.63
53932;BME280;39844;52.496;13.482;2023-06-10T07:02:37;101488.53;;;21.08;60.67
53932;BME280;39844;52.496;13.482;2023-06-10T07:05:02;101487.38;;;21.15;60.27
53932;BME280;39844;52.496;13.482;2023-06-10T07:07:28;101477.66;;;21.14;60.60
53932;BME280;39844;52.496;13.482;2023-06-10T07:09:53;101483.47;;;21.25;61.11
53932;BME280;39844;52.496;13.482;2023-06-10T07:12:18;101490.25;;;21.35;61.15
53932;BME280;39844;52.496;13.482;2023-06-10T07:14:44;101483.75;;;21.42;61.19
53932;BME280;39844;52.496;13.482;2023-06-10T07:17:10;101492.50;;;21.46;60.30
53932;BME280;39844;52.496;13.482;2023-06-10T07:19:35;101498.72;;;21.47;59.92
53932;BME280;39844;52.496;13.482;2023-06-10T07:22:01;101500.56;;;21.45;59.48
53932;BME280;39844;52.496;13.482;2023-06-10T07:24:26;101488.03;;;21.47;59.85
53932;BME280;39844;52.496;13.482;2023-06-10T07:26:51;101498.50;;;21.53;59.49
53932;BME280;39844;52.496;13.482;2023-06-10T07:29:19;101498.25;;;21.59;59.14
53932;BME280;39844;52.496;13.482;2023-06-10T07:31:44;101503.28;;;21.68;59.30
53932;BME280;39844;52.496;13.482;2023-06-10T07:34:10;101500.94;;;21.82;59.34
53932;BME280;39844;52.496;13.482;2023-06-10T07:36:35;101501.28;;;21.97;58.67
53932;BME280;39844;52.496;13.482;2023-06-10T07:39:03;101505.16;;;22.12;59.01
53932;BME280;39844;52.496;13.482;2023-06-10T07:41:28;101510.28;;;22.18;57.43
53932;BME280;39844;52.496;13.482;2023-06-10T07:43:54;101504.53;;;22.27;57.73
53932;BME280;39844;52.496;13.482;2023-06-10T07:46:20;101509.44;;;22.39;58.08
53932;BME280;39844;52.496;13.482;2023-06-10T07:48:45;101509.91;;;22.49;57.64
53932;BME280;39844;52.496;13.482;2023-06-10T07:51:10;101507.69;;;22.60;56.92
53932;BME280;39844;52.496;13.482;2023-06-10T07:53:36;101514.56;;;22.67;56.75
53932;BME280;39844;52.496;13.482;2023-06-10T07:56:01;101508.22;;;22.70;56.85
53932;BME280;39844;52.496;13.482;2023-06-10T07:58:26;101513.44;;;22.73;56.19
53932;BME280;39844;52.496;13.482;2023-06-10T08:00:51;101506.94;;;22.78;56.59
53932;BME280;39844;52.496;13.482;2023-06-10T08:03:17;101505.81;;;22.84;56.37
53932;BME280;39844;52.496;13.482;2023-06-10T08:05:43;101503.81;;;22.89;55.55
53932;BME280;39844;52.496;13.482;2023-06-10T08:08:08;101505.31;;;22.96;54.74
53932;BME280;39844;52.496;13.482;2023-06-10T08:10:33;101512.03;;;23.06;55.43
53932;BME280;39844;52.496;13.482;2023-06-10T08:12:58;101505.47;;;23.13;54.78
53932;BME280;39844;52.496;13.482;2023-06-10T08:15:24;101503.03;;;23.27;54.72
53932;BME280;39844;52.496;13.482;2023-06-10T08:17:49;101505.06;;;23.42;54.28
53932;BME280;39844;52.496;13.482;2023-06-10T08:20:14;101501.69;;;23.57;53.89
53932;BME280;39844;52.496;13.482;2023-06-10T08:22:40;101508.25;;;23.70;52.92
53932;BME280;39844;52.496;13.482;2023-06-10T08:25:05;101507.84;;;23.79;52.03
53932;BME280;39844;52.496;13.482;2023-06-10T08:27:30;101513.66;;;23.89;51.88
53932;BME280;39844;52.496;13.482;2023-06-10T08:29:56;101511.25;;;24.02;51.36
53932;BME280;39844;52.496;13.482;2023-06-10T08:32:21;101503.44;;;24.16;51.07
53932;BME280;39844;52.496;13.482;2023-06-10T08:34:46;101508.25;;;24.28;50.95
53932;BME280;39844;52.496;13.482;2023-06-10T08:37:12;101514.59;;;24.44;50.04
53932;BME280;39844;52.496;13.482;2023-06-10T08:39:37;101517.91;;;24.49;49.39
53932;BME280;39844;52.496;13.482;2023-06-10T08:44:40;101515.00;;;24.53;49.60
53932;BME280;39844;52.496;13.482;2023-06-10T08:47:16;101517.16;;;24.64;49.35
53932;BME280;39844;52.496;13.482;2023-06-10T08:49:46;101509.47;;;24.75;49.63
53932;BME280;39844;52.496;13.482;2023-06-10T08:52:15;101521.22;;;24.91;49.57
53932;BME280;39844;52.496;13.482;2023-06-10T08:54:43;101517.03;;;25.03;50.07
53932;BME280;39844;52.496;13.482;2023-06-10T08:57:09;101512.91;;;25.13;49.16
53932;BME280;39844;52.496;13.482;2023-06-10T08:59:34;101519.50;;;25.25;49.19
53932;BME280;39844;52.496;13.482;2023-06-10T09:02:01;101512.34;;;25.41;49.27
53932;BME280;39844;52.496;13.482;2023-06-10T09:04:27;101519.97;;;25.50;48.80
53932;BME280;39844;52.496;13.482;2023-06-10T09:06:53;101522.94;;;25.61;48.98
53932;BME280;39844;52.496;13.482;2023-06-10T09:09:19;101522.09;;;25.76;49.27
53932;BME280;39844;52.496;13.482;2023-06-10T09:11:45;101517.13;;;25.86;48.59
53932;BME280;39844;52.496;13.482;2023-06-10T09:14:10;101512.72;;;26.00;47.38
53932;BME280;39844;52.496;13.482;2023-06-10T09:16:35;101510.63;;;26.05;46.99
53932;BME280;39844;52.496;13.482;2023-06-10T09:19:01;101506.75;;;26.26;47.17
53932;BME280;39844;52.496;13.482;2023-06-10T09:21:27;101515.97;;;26.54;45.27
53932;BME280;39844;52.496;13.482;2023-06-10T09:23:53;101514.03;;;26.87;45.27
53932;BME280;39844;52.496;13.482;2023-06-10T09:26:18;101497.75;;;27.18;44.83
53932;BME280;39844;52.496;13.482;2023-06-10T09:28:44;101504.28;;;27.44;44.26
53932;BME280;39844;52.496;13.482;2023-06-10T09:31:12;101501.69;;;27.56;43.41
53932;BME280;39844;52.496;13.482;2023-06-10T09:33:39;101511.13;;;27.92;43.18
53932;BME280;39844;52.496;13.482;2023-06-10T09:36:04;101515.09;;;28.29;42.18
53932;BME280;39844;52.496;13.482;2023-06-10T09:38:32;101513.94;;;28.59;41.98
53932;BME280;39844;52.496;13.482;2023-06-10T09:40:57;101520.28;;;28.32;41.21
53932;BME280;39844;52.496;13.482;2023-06-10T09:43:41;101517.72;;;28.02;41.65
53932;BME280;39844;52.496;13.482;2023-06-10T09:46:07;101523.47;;;27.68;42.44
53932;BME280;39844;52.496;13.482;2023-06-10T09:48:43;101519.91;;;27.23;42.94
53932;BME280;39844;52.496;13.482;2023-06-10T09:51:09;101531.91;;;26.88;44.12
53932;BME280;39844;52.496;13.482;2023-06-10T09:53:35;101525.25;;;26.64;44.74
53932;BME280;39844;52.496;13.482;2023-06-10T09:56:00;101535.44;;;26.43;44.65
53932;BME280;39844;52.496;13.482;2023-06-10T09:58:38;101527.38;;;26.10;45.46
53932;BME280;39844;52.496;13.482;2023-06-10T10:01:09;101532.53;;;25.82;45.47
53932;BME280;39844;52.496;13.482;2023-06-10T10:03:45;101526.41;;;25.63;46.05
53932;BME280;39844;52.496;13.482;2023-06-10T10:06:12;101521.69;;;25.51;45.93
53932;BME280;39844;52.496;13.482;2023-06-10T10:08:37;101527.44;;;25.43;45.37
53932;BME280;39844;52.496;13.482;2023-06-10T10:11:02;101529.13;;;25.46;45.48
53932;BME280;39844;52.496;13.482;2023-06-10T10:13:28;101527.94;;;25.51;45.38
53932;BME280;39844;52.496;13.482;2023-06-10T10:15:59;101534.03;;;25.55;44.73
53932;BME280;39844;52.496;13.482;2023-06-10T10:18:29;101528.72;;;25.53;44.75
53932;BME280;39844;52.496;13.482;2023-06-10T10:20:55;101528.72;;;25.53;44.47
53932;BME280;39844;52.496;13.482;2023-06-10T10:23:32;101530.53;;;25.53;43.48
53932;BME280;39844;52.496;13.482;2023-06-10T10:26:00;101526.91;;;25.54;44.28
53932;BME280;39844;52.496;13.482;2023-06-10T10:28:44;101526.38;;;25.47;43.33
53932;BME280;39844;52.496;13.482;2023-06-10T10:31:11;101525.78;;;25.41;43.42
53932;BME280;39844;52.496;13.482;2023-06-10T10:33:54;101530.13;;;25.43;43.48
53932;BME280;39844;52.496;13.482;2023-06-10T10:36:20;101522.06;;;25.43;43.42
53932;BME280;39844;52.496;13.482;2023-06-10T10:38:47;101520.88;;;25.66;42.90
53932;BME280;39844;52.496;13.482;2023-06-10T10:41:13;101523.78;;;26.43;42.20
53932;BME280;39844;52.496;13.482;2023-06-10T10:43:40;101502.78;;;27.38;40.35
53932;BME280;39844;52.496;13.482;2023-06-10T10:46:11;101506.13;;;27.86;37.97
53932;BME280;39844;52.496;13.482;2023-06-10T10:48:38;101499.41;;;27.79;36.27
53932;BME280;39844;52.496;13.482;2023-06-10T10:51:04;101499.69;;;27.60;37.82
53932;BME280;39844;52.496;13.482;2023-06-10T10:53:29;101493.31;;;27.47;38.21
53932;BME280;39844;52.496;13.482;2023-06-10T10:56:08;101484.31;;;27.32;37.76
53932;BME280;39844;52.496;13.482;2023-06-10T10:58:37;101481.19;;;27.24;38.38
53932;BME280;39844;52.496;13.482;2023-06-10T11:01:12;101484.66;;;27.26;38.32
53932;BME280;39844;52.496;13.482;2023-06-10T11:03:45;101488.00;;;27.59;37.43
53932;BME280;39844;52.496;13.482;2023-06-10T11:06:15;101484.50;;;28.00;37.49
53932;BME280;39844;52.496;13.482;2023-06-10T11:11:19;101472.25;;;28.63;34.72
53932;BME280;39844;52.496;13.482;2023-06-10T11:16:25;101476.44;;;29.21;34.19
53932;BME280;39844;52.496;13.482;2023-06-10T11:18:53;101470.88;;;29.85;34.39
53932;BME280;39844;52.496;13.482;2023-06-10T11:21:19;101459.50;;;30.42;32.49
53932;BME280;39844;52.496;13.482;2023-06-10T11:23:44;101471.88;;;31.04;32.34
53932;BME280;39844;52.496;13.482;2023-06-10T11:28:39;101472.97;;;31.59;31.43
53932;BME280;39844;52.496;13.482;2023-06-10T11:31:04;101472.75;;;31.73;31.58
53932;BME280;39844;52.496;13.482;2023-06-10T11:33:30;101467.06;;;31.98;30.53
53932;BME280;39844;52.496;13.482;2023-06-10T11:35:56;101465.59;;;32.59;29.99
53932;BME280;39844;52.496;13.482;2023-06-10T11:38:21;101462.56;;;32.41;28.92
53932;BME280;39844;52.496;13.482;2023-06-10T11:40:48;101476.97;;;32.42;29.44
53932;BME280;39844;52.496;13.482;2023-06-10T11:43:14;101474.16;;;32.43;28.89
53932;BME280;39844;52.496;13.482;2023-06-10T11:45:43;101471.53;;;32.42;29.07
53932;BME280;39844;52.496;13.482;2023-06-10T11:48:09;101470.22;;;32.36;29.05
53932;BME280;39844;52.496;13.482;2023-06-10T11:50:36;101474.16;;;32.43;28.38
53932;BME280;39844;52.496;13.482;2023-06-10T11:53:02;101469.91;;;32.50;30.52
53932;BME280;39844;52.496;13.482;2023-06-10T11:55:43;101472.03;;;32.58;29.14
53932;BME280;39844;52.496;13.482;2023-06-10T11:58:16;101480.72;;;32.41;29.99
53932;BME280;39844;52.496;13.482;2023-06-10T12:00:49;101469.75;;;32.20;29.48
53932;BME280;39844;52.496;13.482;2023-06-10T12:03:15;101468.78;;;32.21;30.52
53932;BME280;39844;52.496;13.482;2023-06-10T12:08:19;101467.91;;;32.21;29.65
53932;BME280;39844;52.496;13.482;2023-06-10T12:10:47;101468.31;;;32.16;30.16
53932;BME280;39844;52.496;13.482;2023-06-10T12:13:12;101465.19;;;32.10;29.28
53932;BME280;39844;52.496;13.482;2023-06-10T12:15:38;101457.66;;;32.13;30.12
53932;BME280;39844;52.496;13.482;2023-06-10T12:18:03;101455.81;;;32.14;30.97
53932;BME280;39844;52.496;13.482;2023-06-10T12:20:30;101460.47;;;32.23;30.59
53932;BME280;39844;52.496;13.482;2023-06-10T12:22:56;101457.91;;;32.21;30.19
53932;BME280;39844;52.496;13.482;2023-06-10T12:25:25;101463.53;;;32.40;30.90
53932;BME280;39844;52.496;13.482;2023-06-10T12:27:52;101451.66;;;32.53;30.59
53932;BME280;39844;52.496;13.482;2023-06-10T12:30:19;101445.00;;;32.77;30.68
53932;BME280;39844;52.496;13.482;2023-06-10T12:32:46;101453.28;;;32.76;30.98
53932;BME280;39844;52.496;13.482;2023-06-10T12:35:32;101444.88;;;32.79;30.33
53932;BME280;39844;52.496;13.482;2023-06-10T12:38:06;101440.50;;;32.87;30.39
53932;BME280;39844;52.496;13.482;2023-06-10T12:40:36;101436.25;;;32.74;30.88
53932;BME280;39844;52.496;13.482;2023-06-10T12:43:02;101431.72;;;32.63;31.04
53932;BME280;39844;52.496;13.482;2023-06-10T12:45:28;101434.28;;;32.65;30.90
53932;BME280;39844;52.496;13.482;2023-06-10T12:48:20;101433.03;;;32.69;31.49
53932;BME280;39844;52.496;13.482;2023-06-10T12:50:53;101425.81;;;32.79;30.91
53932;BME280;39844;52.496;13.482;2023-06-10T12:53:20;101419.72;;;32.86;31.46
53932;BME280;39844;52.496;13.482;2023-06-10T12:55:46;101412.84;;;32.82;31.43
53932;BME280;39844;52.496;13.482;2023-06-10T12:58:12;101416.69;;;32.80;30.60